Latest Weather Observations for Fawkner Beacon

IDV60801

Issued at 12:35 am EST Friday 25 April 2014 (issued every 30 minutes, with the page automatically refreshed every 10 minutes)

About weather observations | Map of weather stations | Latest weather observations for VIC | Other Formats
Station Details ID: 086376 Name: FAWKNER BEACON Lat: -37.91 Lon: 144.93 Height: 17.0 m
Data from the previous 72 hours. | See also: Recent months for locations in Victoria
Date/Time
EST
Temp
°C
App
Temp
°C
Dew
Point
Rel
Hum
%
Delta-T
°C
Wind Press
QNH
hPa
Press
MSL
hPa
Rain
since 9 am
mm
Dir
 
Spd
km/h
Gust
km/h
Spd
kts
Gust
kts
25/12:30am - - - - - ENE 17 20 9 11 - - -
25/12:00am - - - - - ENE 17 22 9 12 - - -
 
Date/Time
EST
Temp
°C
App
Temp
°C
Dew
Point
Rel
Hum
%
Delta-T
°C
Wind Press
QNH
hPa
Press
MSL
hPa
Rain
since 9 am
mm
Dir
 
Spd
km/h
Gust
km/h
Spd
kts
Gust
kts
24/11:30pm - - - - - ENE 17 20 9 11 - - -
24/11:00pm - - - - - ESE 17 24 9 13 - - -
24/10:30pm - - - - - SE 17 22 9 12 - - -
24/10:00pm - - - - - ESE 17 22 9 12 - - -
24/09:30pm - - - - - SE 15 22 8 12 - - -
24/09:00pm - - - - - SSE 15 22 8 12 - - -
24/08:30pm - - - - - SSE 19 24 10 13 - - -
24/08:00pm - - - - - SSE 20 24 11 13 - - -
24/07:30pm - - - - - SE 20 28 11 15 - - -
24/07:00pm - - - - - SSE 22 28 12 15 - - -
24/06:30pm - - - - - SSE 22 26 12 14 - - -
24/06:00pm - - - - - S 26 30 14 16 - - -
24/05:30pm - - - - - SSE 26 33 14 18 - - -
24/05:00pm - - - - - SSE 28 35 15 19 - - -
24/04:30pm - - - - - S 28 33 15 18 - - -
24/04:00pm - - - - - S 26 32 14 17 - - -
24/03:30pm - - - - - S 24 28 13 15 - - -
24/03:00pm - - - - - S 24 32 13 17 - - -
24/02:30pm - - - - - SSW 15 20 8 11 - - -
24/02:00pm - - - - - SSW 17 24 9 13 - - -
24/01:30pm - - - - - SW 20 28 11 15 - - -
24/01:00pm - - - - - SSW 17 24 9 13 - - -
24/12:30pm - - - - - SSW 28 35 15 19 - - -
24/12:00pm - - - - - SW 32 41 17 22 - - -
24/11:30am - - - - - SSW 32 39 17 21 - - -
24/11:00am - - - - - SW 30 41 16 22 - - -
24/10:30am - - - - - SW 32 39 17 21 - - -
24/10:00am - - - - - SW 35 43 19 23 - - -
24/09:30am - - - - - WSW 32 41 17 22 - - -
24/09:00am - - - - - WSW 35 43 19 23 - - -
24/08:30am - - - - - W 39 48 21 26 - - -
24/08:00am - - - - - W 43 52 23 28 - - -
24/07:30am - - - - - WNW 39 48 21 26 - - -
24/07:00am - - - - - NW 33 43 18 23 - - -
24/06:30am - - - - - NW 32 39 17 21 - - -
24/06:00am - - - - - NW 28 35 15 19 - - -
24/05:30am - - - - - NW 30 33 16 18 - - -
24/05:00am - - - - - NNW 32 35 17 19 - - -
24/04:30am - - - - - N 32 35 17 19 - - -
24/04:00am - - - - - NNW 32 39 17 21 - - -
24/03:30am - - - - - NNW 33 39 18 21 - - -
24/03:00am - - - - - NNW 35 43 19 23 - - -
24/02:30am - - - - - NNW 33 41 18 22 - - -
24/02:00am - - - - - NNW 32 41 17 22 - - -
24/01:30am - - - - - NNW 32 35 17 19 - - -
24/01:00am - - - - - NNW 28 32 15 17 - - -
24/12:30am - - - - - NNW 28 33 15 18 - - -
24/12:00am - - - - - NNW 32 39 17 21 - - -
 
Date/Time
EST
Temp
°C
App
Temp
°C
Dew
Point
Rel
Hum
%
Delta-T
°C
Wind Press
QNH
hPa
Press
MSL
hPa
Rain
since 9 am
mm
Dir
 
Spd
km/h
Gust
km/h
Spd
kts
Gust
kts
23/11:30pm - - - - - N 26 32 14 17 - - -
23/11:00pm - - - - - NNW 28 32 15 17 - - -
23/10:30pm - - - - - NNW 22 26 12 14 - - -
23/10:00pm - - - - - NNW 22 26 12 14 - - -
23/09:30pm - - - - - NNW 20 22 11 12 - - -
23/09:00pm - - - - - N 6 7 3 4 - - -
23/08:30pm - - - - - CALM 0 0 0 0 - - -
23/08:00pm - - - - - CALM 0 0 0 0 - - -
23/07:30pm - - - - - CALM 0 4 0 2 - - -
23/07:00pm - - - - - E 7 11 4 6 - - -
23/06:30pm - - - - - ESE 7 9 4 5 - - -
23/06:00pm - - - - - SE 7 9 4 5 - - -
23/05:30pm - - - - - SE 9 9 5 5 - - -
23/05:00pm - - - - - SSE 9 11 5 6 - - -
23/04:30pm - - - - - S 7 11 4 6 - - -
23/04:00pm - - - - - E 6 7 3 4 - - -
23/03:30pm - - - - - E 7 9 4 5 - - -
23/03:00pm - - - - - E 7 9 4 5 - - -
23/02:30pm - - - - - E 6 9 3 5 - - -
23/02:00pm - - - - - ENE 6 7 3 4 - - -
23/01:30pm - - - - - SSE 4 7 2 4 - - -
23/01:00pm - - - - - S 7 9 4 5 - - -
23/12:30pm - - - - - SSW 13 15 7 8 - - -
23/12:00pm - - - - - SW 13 15 7 8 - - -
23/11:30am - - - - - WSW 15 17 8 9 - - -
23/11:00am - - - - - SW 13 15 7 8 - - -
23/10:30am - - - - - SW 20 24 11 13 - - -
23/10:00am - - - - - SW 24 26 13 14 - - -
23/09:30am - - - - - SW 24 28 13 15 - - -
23/09:00am - - - - - WSW 22 26 12 14 - - -
23/08:30am - - - - - SW 19 22 10 12 - - -
23/08:00am - - - - - WSW 22 24 12 13 - - -
23/07:30am - - - - - WSW 19 22 10 12 - - -
23/07:00am - - - - - SW 13 17 7 9 - - -
23/06:30am - - - - - WSW 15 17 8 9 - - -
23/06:00am - - - - - W 15 20 8 11 - - -
23/05:30am - - - - - W 19 22 10 12 - - -
23/05:00am - - - - - WNW 11 22 6 12 - - -
23/04:30am - - - - - W 6 7 3 4 - - -
23/04:00am - - - - - NNW 9 15 5 8 - - -
23/03:30am - - - - - N 9 11 5 6 - - -
23/03:00am - - - - - NE 9 11 5 6 - - -
23/02:30am - - - - - NE 7 11 4 6 - - -
23/02:00am - - - - - ENE 9 11 5 6 - - -
23/01:30am - - - - - ENE 7 9 4 5 - - -
23/01:00am - - - - - ESE 9 11 5 6 - - -
23/12:30am - - - - - ESE 9 13 5 7 - - -
23/12:00am - - - - - ESE 9 13 5 7 - - -
 
Date/Time
EST
Temp
°C
App
Temp
°C
Dew
Point
Rel
Hum
%
Delta-T
°C
Wind Press
QNH
hPa
Press
MSL
hPa
Rain
since 9 am
mm
Dir
 
Spd
km/h
Gust
km/h
Spd
kts
Gust
kts
22/11:30pm - - - - - E 11 15 6 8 - - -
22/11:00pm - - - - - SE 13 15 7 8 - - -
22/10:30pm - - - - - SE 11 13 6 7 - - -
22/10:00pm - - - - - SSE 13 15 7 8 - - -
22/09:30pm - - - - - SSE 15 20 8 11 - - -
22/09:00pm - - - - - SE 15 20 8 11 - - -
22/08:30pm - - - - - SE 15 20 8 11 - - -
22/08:00pm - - - - - SSE 22 26 12 14 - - -
22/07:30pm - - - - - SSE 20 26 11 14 - - -
22/07:00pm - - - - - SSE 22 28 12 15 - - -
22/06:30pm - - - - - SSE 24 28 13 15 - - -
22/06:00pm - - - - - SSE 20 22 11 12 - - -
22/05:30pm - - - - - SSE 20 26 11 14 - - -
22/05:00pm - - - - - SSE 13 17 7 9 - - -
22/04:30pm - - - - - SSE 13 15 7 8 - - -
22/04:00pm - - - - - S 7 15 4 8 - - -
22/03:30pm - - - - - WSW 6 11 3 6 - - -
22/03:00pm - - - - - NW 9 11 5 6 - - -
22/02:30pm - - - - - NNW 9 13 5 7 - - -
22/02:00pm - - - - - NW 9 11 5 6 - - -
22/01:30pm - - - - - N 19 24 10 13 - - -
22/01:00pm - - - - - N 20 24 11 13 - - -
22/12:30pm - - - - - N 24 28 13 15 - - -
22/12:00pm - - - - - N 24 32 13 17 - - -
22/11:30am - - - - - N 35 43 19 23 - - -
22/11:00am - - - - - N 37 44 20 24 - - -
22/10:30am - - - - - N 39 48 21 26 - - -
22/10:00am - - - - - N 46 54 25 29 - - -
22/09:30am - - - - - N 43 50 23 27 - - -
22/09:00am - - - - - N 44 59 24 32 - - -
22/08:46am - - - - - N 46 52 25 28 - - -
22/08:30am - - - - - N 28 33 15 18 - - -
22/08:00am - - - - - N 20 24 11 13 - - -
22/07:30am - - - - - NW 13 17 7 9 - - -
22/07:00am - - - - - NW 24 32 13 17 - - -
22/06:30am - - - - - NNW 43 54 23 29 - - -
22/06:00am - - - - - NNW 52 61 28 33 - - -
22/05:42am - - - - - NNW 52 70 28 38 - - -
22/05:30am - - - - - N 57 70 31 38 - - -
22/05:02am - - - - - NNW 52 70 28 38 - - -
22/05:00am - - - - - NNW 54 70 29 38 - - -
22/04:41am - - - - - N 63 83 34 45 - - -
22/04:30am - - - - - NNW 61 76 33 41 - - -
22/04:00am - - - - - NNW 57 69 31 37 - - -
22/03:30am - - - - - N 57 70 31 38 - - -
22/03:00am - - - - - N 61 78 33 42 - - -
22/02:30am - - - - - N 61 72 33 39 - - -
22/02:16am - - - - - N 57 76 31 41 - - -
22/02:00am - - - - - N 61 72 33 39 - - -
22/01:47am - - - - - N 57 76 31 41 - - -
22/01:30am - - - - - N 56 67 30 36 - - -
22/01:00am - - - - - N 54 65 29 35 - - -

Other Formats:

Comma delimited format used in spreadsheet applications
http://www.bom.gov.au/fwo/IDV60801/IDV60801.95872.axf

JavaScript Object Notation format (JSON) in row-major order
http://www.bom.gov.au/fwo/IDV60801/IDV60801.95872.json